»·PEaware :: N197JS KLAX-KSJC

N197JS :: KLAX-KSJC

FLIGHT INFORMATION

Flight Status: Arrived
Operator: Privately registered:
United States
More flights under this callsign
Pilot: Tanner C. (11250)
Aircraft: BOMBARDIER BD-100 CHALLENGER 300
(CL30)
More flights by this aircraft type
Origin: KLAX Los Angeles Intl
United States
Destination: KSJC Mineta San Jose Intl
United States
More flights between these airports :: More routes between these airports
Route: SUMMR1 SCTRR TROXX SILCN4
File this flight plan on PilotEdge
Remarks:
Altitude:
(Current/Filed)
32,000ft
Speed:
(Current/Filed)
400kts
Departed: 13-Mar-18 08:59 PM
Arrived: 13-Mar-18 09:46 PM
Distance/Time
Traveled:
268nm/0:47
Distance/Time
To Go:
Arrived

Flight Plot

Page will automatically refresh every two minutes.

Flight plan parsing failed; only flown route is shown


Map Options




Map Legend


Flown Route
Filed Route
Departure Airport
Arrival Airport
Navaid (VOR, NDB)
Fix

Horizontal Profiles

Position Reports

Time Latitude Longitude Heading Altitude Ground
Speed
13-Mar-18 20:46 33.932899 -118.399862 78 109ft 0kts
13-Mar-18 20:47 33.932899 -118.399862 78 109ft 0kts
13-Mar-18 20:48 33.932899 -118.399862 78 109ft 0kts
13-Mar-18 20:49 33.932899 -118.399862 78 109ft 0kts
13-Mar-18 20:50 33.932899 -118.399862 78 109ft 0kts
13-Mar-18 20:51 33.932899 -118.399862 78 109ft 0kts
13-Mar-18 20:52 33.932899 -118.399862 78 109ft 0kts
13-Mar-18 20:53 33.933191 -118.399404 23 109ft 13kts
13-Mar-18 20:54 33.934715 -118.396576 83 109ft 22kts
13-Mar-18 20:55 33.935332 -118.390341 83 109ft 21kts
13-Mar-18 20:56 33.935975 -118.384229 82 109ft 12kts
13-Mar-18 20:57 33.937303 -118.383297 262 109ft 6kts
13-Mar-18 20:58 33.933102 -118.422066 263 2438ft 185kts
13-Mar-18 20:59 33.929393 -118.474627 264 6882ft 211kts
13-Mar-18 21:00 33.924125 -118.550450 261 10809ft 281kts
13-Mar-18 21:01 33.918417 -118.649744 265 12975ft 313kts
13-Mar-18 21:02 33.917562 -118.753431 265 13917ft 319kts
13-Mar-18 21:03 33.918107 -118.862558 267 18155ft 337kts
13-Mar-18 21:04 33.921274 -118.976314 267 21868ft 350kts
13-Mar-18 21:05 33.961472 -119.087335 293 24884ft 381kts
13-Mar-18 21:06 34.020053 -119.188729 312 27327ft 412kts
13-Mar-18 21:07 34.110566 -119.271342 314 29426ft 424kts
13-Mar-18 21:08 34.201433 -119.350707 314 31091ft 414kts
13-Mar-18 21:09 34.296975 -119.433581 314 32034ft 437kts
13-Mar-18 21:10 34.398700 -119.521749 315 32062ft 452kts
13-Mar-18 21:11 34.495277 -119.611765 312 32065ft 441kts
13-Mar-18 21:12 34.592056 -119.703131 312 32082ft 452kts
13-Mar-18 21:13 34.690482 -119.796297 312 32080ft 452kts
13-Mar-18 21:14 34.788707 -119.889590 312 32080ft 455kts
13-Mar-18 21:15 34.887687 -119.983891 312 32080ft 457kts
13-Mar-18 21:16 34.985776 -120.077638 312 32079ft 457kts
13-Mar-18 21:17 35.085297 -120.173054 311 32079ft 458kts
13-Mar-18 21:18 35.182183 -120.265574 313 32066ft 457kts
13-Mar-18 21:19 35.282205 -120.357133 313 32067ft 455kts
13-Mar-18 21:20 35.382213 -120.448894 312 32068ft 460kts
13-Mar-18 21:21 35.480911 -120.539729 312 32041ft 466kts
13-Mar-18 21:22 35.586574 -120.628807 317 32041ft 472kts
13-Mar-18 21:23 35.694160 -120.713264 316 32056ft 477kts
13-Mar-18 21:24 35.805065 -120.800595 316 32056ft 480kts
13-Mar-18 21:25 35.916601 -120.888638 315 32054ft 478kts
13-Mar-18 21:26 36.028390 -120.976481 310 30728ft 473kts
13-Mar-18 21:27 36.125664 -121.072104 311 28808ft 477kts
13-Mar-18 21:28 36.221947 -121.164401 311 26557ft 436kts
13-Mar-18 21:29 36.311432 -121.250169 310 24320ft 403kts
13-Mar-18 21:30 36.397844 -121.333310 310 22753ft 390kts
13-Mar-18 21:31 36.478878 -121.411514 311 20031ft 360kts
13-Mar-18 21:32 36.572196 -121.460343 332 16966ft 376kts
13-Mar-18 21:33 36.669445 -121.502471 334 15218ft 371kts
13-Mar-18 21:34 36.764989 -121.543195 335 13252ft 351kts
13-Mar-18 21:35 36.851131 -121.579867 336 10567ft 319kts
13-Mar-18 21:36 36.931389 -121.614039 336 8032ft 292kts
13-Mar-18 21:37 37.004964 -121.645264 336 6423ft 278kts
13-Mar-18 21:38 37.076389 -121.675573 336 4681ft 266kts
13-Mar-18 21:39 37.142008 -121.702982 336 4032ft 255kts
13-Mar-18 21:40 37.198142 -121.750408 312 4026ft 238kts
13-Mar-18 21:41 37.243244 -121.799364 311 3051ft 209kts
13-Mar-18 21:42 37.283538 -121.843421 319 1983ft 176kts
13-Mar-18 21:43 37.317459 -121.880440 320 1087ft 146kts
13-Mar-18 21:44 37.345783 -121.911500 319 331ft 133kts
13-Mar-18 21:45 37.367923 -121.935540 326 49ft 21kts
13-Mar-18 21:46 37.369224 -121.935493 28 49ft 6kts

Navigation Log

Ident Type
Flight plan parsing failed, navigation log unavailable